Latest Weather Observations for Jandakot

IDW60901

Issued at 9:31 am WST Saturday 7 March 2015 (issued every 10 minutes, with the page automatically refreshed every 10 minutes)

About weather observations | Map of Perth area stations | Latest observations for Perth area | Other Formats
Station Details ID: 009172 Name: JANDAKOT AERO Lat: -32.10 Lon: 115.88 Height: 30.0 m
Data from the previous 72 hours. | See also: Recent months at Jandakot
Date/Time
WST
Tmp

°C
App
Tmp
°C
Dew
Point
°C
Rel
Hum
%
Delta-T

°C
Wind Press
QNH
hPa
Press
MSL
hPa
Rain
since
9 am
mm
Dir
 
Spd
km/h
Gust
km/h
Spd
kts
Gust
kts
07/09:30am 23.8 21.4 12.6 49 6.4 E 17 24 9 13 1019.2 1019.1 0.0
07/09:00am 23.0 20.5 12.2 50 6.1 ENE 17 24 9 13 1019.2 1019.1 0.0
07/08:30am 21.9 18.9 11.9 53 5.6 E 19 22 10 12 1019.0 1018.9 0.0
07/08:00am 20.5 17.2 11.7 57 4.9 ESE 20 26 11 14 1019.4 1019.3 0.0
07/07:30am 19.8 15.7 11.4 58 4.6 E 24 35 13 19 1019.2 1019.1 0.0
07/07:00am 19.2 15.5 11.6 61 4.2 E 22 32 12 17 1019.0 1018.9 0.0
07/06:30am 18.7 16.4 11.8 64 3.8 ESE 15 20 8 11 1018.9 1018.8 0.0
07/06:00am 18.9 15.9 11.8 63 3.9 E 19 28 10 15 1018.4 1018.3 0.0
07/05:30am 19.1 15.9 11.9 63 4.0 E 20 28 11 15 1017.9 1017.8 0.0
07/05:00am 19.9 18.0 11.8 59 4.5 ESE 13 22 7 12 1017.9 1017.8 0.0
07/04:30am 20.3 17.6 11.6 57 4.8 E 17 24 9 13 1017.7 1017.6 0.0
07/04:00am 20.2 17.4 11.5 57 4.8 ESE 17 20 9 11 1017.8 1017.7 0.0
07/03:30am 20.6 17.9 11.6 56 5.0 E 17 22 9 12 1017.5 1017.4 0.0
07/03:00am 20.4 18.8 11.5 56 4.9 E 11 19 6 10 1017.7 1017.6 0.0
07/02:30am 20.5 18.2 10.6 53 5.4 ESE 13 20 7 11 1017.7 1017.6 0.0
07/02:00am 20.5 17.8 10.3 52 5.5 E 15 22 8 12 1017.8 1017.7 0.0
07/01:30am 18.0 16.2 12.0 68 3.3 ESE 13 17 7 9 1017.6 1017.5 0.0
07/01:00am 17.3 17.6 14.5 83 1.6 ENE 6 7 3 4 1017.3 1017.2 0.0
07/12:30am 16.1 15.8 12.8 81 1.8 SE 6 15 3 8 1017.6 1017.5 0.0
07/12:00am 18.4 19.9 14.6 78 2.2 CALM 0 0 0 0 1017.5 1017.4 0.0
 
Date/Time
WST
Tmp

°C
App
Tmp
°C
Dew
Point
°C
Rel
Hum
%
Delta-T

°C
Wind Press
QNH
hPa
Press
MSL
hPa
Rain
since
9 am
mm
Dir
 
Spd
km/h
Gust
km/h
Spd
kts
Gust
kts
06/11:30pm 18.0 17.9 14.0 77 2.3 S 7 9 4 5 1017.6 1017.5 0.0
06/11:00pm 20.1 20.5 15.2 73 2.9 S 7 11 4 6 1017.5 1017.4 0.0
06/10:30pm 20.0 20.5 15.1 73 2.9 S 6 6 3 3 1017.5 1017.4 0.0
06/10:00pm 21.1 21.0 15.0 68 3.6 SSW 9 11 5 6 1017.7 1017.6 0.0
06/09:30pm 21.8 21.7 15.0 65 4.0 S 9 11 5 6 1017.8 1017.7 0.0
06/09:00pm 22.5 22.0 14.9 62 4.5 S 11 15 6 8 1017.8 1017.7 0.0
06/08:30pm 23.0 23.0 15.1 61 4.7 S 9 13 5 7 1018.0 1017.9 0.0
06/08:00pm 23.4 23.1 15.4 60 4.8 SSW 11 13 6 7 1017.6 1017.5 0.0
06/07:30pm 23.7 23.2 15.9 61 4.7 SSW 13 17 7 9 1017.3 1017.2 0.0
06/07:00pm 24.1 22.9 16.0 60 4.9 SW 17 24 9 13 1017.1 1017.0 0.0
06/06:30pm 25.1 23.3 15.5 55 5.8 SW 19 28 10 15 1016.9 1016.8 0.0
06/06:00pm 26.2 23.5 14.5 48 7.0 SW 22 33 12 18 1016.9 1016.8 0.0
06/05:30pm 27.0 23.3 13.9 44 7.8 SSW 26 35 14 19 1016.7 1016.6 0.0
06/05:00pm 27.7 23.9 13.7 42 8.3 SW 26 35 14 19 1016.7 1016.6 0.0
06/04:30pm 28.9 24.5 13.0 37 9.4 SW 28 35 15 19 1016.7 1016.6 0.0
06/04:00pm 29.2 24.8 12.9 36 9.6 SW 28 39 15 21 1016.9 1016.8 0.0
06/03:30pm 30.2 25.9 13.2 35 10.1 SSW 28 41 15 22 1017.0 1016.9 0.0
06/03:00pm 29.6 25.8 14.6 40 9.1 SW 28 37 15 20 1017.2 1017.1 0.0
06/02:30pm 29.9 25.6 13.3 36 9.9 WSW 28 35 15 19 1017.6 1017.5 0.0
06/02:00pm 30.0 25.5 12.7 34 10.2 WSW 28 35 15 19 1018.1 1018.0 0.0
06/01:30pm 30.7 28.1 13.3 34 10.4 SSW 19 30 10 16 1018.3 1018.2 0.0
06/01:00pm 31.0 27.9 10.3 27 11.8 ESE 17 30 9 16 1018.7 1018.6 0.0
06/12:30pm 31.3 27.5 8.9 25 12.5 SE 19 32 10 17 1019.1 1019.0 0.0
06/12:00pm 30.8 27.8 10.5 28 11.6 E 17 26 9 14 1019.5 1019.4 0.0
06/11:30am 29.8 26.2 10.4 30 11.0 E 20 30 11 16 1020.1 1020.0 0.0
06/11:00am 29.5 27.2 11.9 33 10.2 NE 15 20 8 11 1020.7 1020.6 0.0
06/10:30am 27.9 24.9 11.9 37 9.2 NE 19 24 10 13 1021.0 1020.9 0.0
06/10:00am 27.2 24.4 12.6 40 8.5 NE 19 24 10 13 1021.2 1021.1 0.0
06/09:30am 26.2 23.8 12.5 42 7.9 E 17 28 9 15 1021.3 1021.2 0.0
06/09:00am 24.4 23.8 13.4 50 6.4 E 9 13 5 7 1021.3 1021.2 0.0
06/08:30am 22.7 22.0 13.3 55 5.4 ESE 9 17 5 9 1021.4 1021.3 0.0
06/08:00am 21.5 20.0 13.1 58 4.8 ESE 13 17 7 9 1021.5 1021.4 0.0
06/07:30am 20.3 18.4 12.9 62 4.2 ESE 15 20 8 11 1021.6 1021.5 0.0
06/07:00am 18.9 17.6 12.6 67 3.5 ESE 11 15 6 8 1021.4 1021.3 0.0
06/06:30am 17.8 16.1 12.4 70 3.0 ESE 13 17 7 9 1021.3 1021.2 0.0
06/06:00am 17.0 16.4 12.3 74 2.6 ESE 7 9 4 5 1021.1 1021.0 0.0
06/05:30am 18.2 16.9 12.4 69 3.2 ESE 11 13 6 7 1020.9 1020.8 0.0
06/05:00am 18.7 16.5 12.2 66 3.6 E 15 20 8 11 1020.6 1020.5 0.0
06/04:30am 19.2 17.5 12.4 64 3.8 E 13 17 7 9 1020.7 1020.6 0.0
06/04:00am 19.6 18.2 12.2 62 4.1 E 11 17 6 9 1020.5 1020.4 0.0
06/03:30am 20.1 18.7 12.2 60 4.4 E 11 20 6 11 1020.6 1020.5 0.0
06/03:00am 21.0 18.3 11.8 55 5.1 E 17 24 9 13 1020.7 1020.6 0.0
06/02:30am 21.7 18.4 11.6 52 5.6 E 20 30 11 16 1020.4 1020.3 0.0
06/02:00am 22.1 18.0 11.5 51 5.9 E 24 33 13 18 1020.3 1020.2 0.0
06/01:30am 22.4 18.9 10.1 45 6.7 E 19 30 10 16 1020.5 1020.4 0.0
06/01:00am 22.8 19.5 9.4 42 7.2 E 17 24 9 13 1020.7 1020.6 0.0
06/12:30am 23.5 19.9 8.2 37 8.1 E 17 24 9 13 1020.8 1020.7 0.0
06/12:00am 21.1 18.3 8.5 44 6.6 SE 13 17 7 9 1020.9 1020.8 0.0
 
Date/Time
WST
Tmp

°C
App
Tmp
°C
Dew
Point
°C
Rel
Hum
%
Delta-T

°C
Wind Press
QNH
hPa
Press
MSL
hPa
Rain
since
9 am
mm
Dir
 
Spd
km/h
Gust
km/h
Spd
kts
Gust
kts
05/11:30pm 20.6 18.1 8.3 45 6.4 SE 11 13 6 7 1020.7 1020.6 0.0
05/11:00pm 20.7 18.3 8.7 46 6.3 SE 11 13 6 7 1020.8 1020.7 0.0
05/10:30pm 22.2 19.8 8.6 41 7.2 SE 11 13 6 7 1021.0 1020.9 0.0
05/10:00pm 23.0 20.6 8.5 39 7.7 SE 11 13 6 7 1021.2 1021.1 0.0
05/09:30pm 24.5 21.5 7.8 34 8.8 SE 13 17 7 9 1021.5 1021.4 0.0
05/09:00pm 25.1 21.7 7.7 33 9.2 ESE 15 19 8 10 1021.3 1021.2 0.0
05/08:30pm 25.7 22.7 7.6 31 9.6 ESE 13 17 7 9 1021.0 1020.9 0.0
05/08:00pm 25.5 22.4 7.2 31 9.6 ESE 13 15 7 8 1020.7 1020.6 0.0
05/07:30pm 26.7 23.6 7.3 29 10.3 ESE 13 17 7 9 1020.2 1020.1 0.0
05/07:00pm 28.4 25.2 7.0 26 11.4 ESE 13 20 7 11 1019.8 1019.7 0.0
05/06:30pm 30.0 26.0 6.6 23 12.5 ESE 17 26 9 14 1019.5 1019.4 0.0
05/06:00pm 31.0 26.7 6.9 22 13.0 ESE 19 28 10 15 1019.3 1019.2 0.0
05/05:30pm 31.8 26.7 5.9 19 13.8 E 22 28 12 15 1019.1 1019.0 0.0
05/05:00pm 32.0 27.1 5.3 18 14.1 E 20 28 11 15 1019.0 1018.9 0.0
05/04:30pm 32.3 26.7 5.6 18 14.2 ESE 24 33 13 18 1019.0 1018.9 0.0
05/04:00pm 32.3 28.4 7.2 21 13.7 ESE 17 26 9 14 1019.1 1019.0 0.0
05/03:30pm 32.6 29.0 6.8 20 14.0 E 15 26 8 14 1019.2 1019.1 0.0
05/03:00pm 32.0 28.3 8.1 22 13.2 ESE 17 26 9 14 1019.6 1019.5 0.0
05/02:30pm 32.3 28.3 8.1 22 13.4 ENE 19 28 10 15 1020.1 1020.0 0.0
05/02:00pm 32.0 27.8 8.1 22 13.2 E 20 30 11 16 1020.6 1020.5 0.0
05/01:30pm 31.2 27.5 8.1 23 12.7 E 17 30 9 16 1021.0 1020.9 0.0
05/01:00pm 30.6 26.8 9.1 26 12.0 E 19 32 10 17 1021.5 1021.4 0.0
05/12:30pm 30.1 26.1 9.0 27 11.8 ESE 20 28 11 15 1022.0 1021.9 0.0
05/12:00pm 28.8 24.2 9.8 30 10.6 E 24 33 13 18 1022.4 1022.3 0.0
05/11:30am 28.9 25.3 10.5 31 10.4 ENE 20 30 11 16 1022.9 1022.8 0.0
05/11:00am 27.6 23.8 11.0 35 9.4 ENE 22 37 12 20 1023.4 1023.3 0.0
05/10:30am 26.5 22.0 11.3 38 8.6 ENE 26 37 14 20 1023.8 1023.7 0.0
05/10:00am 25.8 21.4 11.7 41 8.0 ENE 26 35 14 19 1024.1 1024.0 0.0
05/09:30am 24.5 21.5 11.8 45 7.2 ENE 19 30 10 16 1024.2 1024.1 0.0
05/09:00am 23.0 20.3 11.8 49 6.3 E 17 24 9 13 1024.2 1024.1 0.0
05/08:30am 21.5 18.9 12.0 54 5.3 E 17 22 9 12 1024.3 1024.2 0.0
05/08:00am 20.8 18.3 12.4 58 4.7 E 17 22 9 12 1024.2 1024.1 0.0
05/07:30am 19.3 16.2 12.1 63 4.0 ESE 20 28 11 15 1024.2 1024.1 0.0
05/07:00am 18.5 14.6 12.0 66 3.6 ESE 24 33 13 18 1023.9 1023.8 0.0
05/06:30am 17.8 14.2 12.0 69 3.2 ESE 22 30 12 16 1023.7 1023.6 0.0
05/06:00am 18.0 14.0 11.8 67 3.4 ESE 24 35 13 19 1023.4 1023.3 0.0
05/05:30am 18.2 14.2 11.8 66 3.5 E 24 35 13 19 1023.1 1023.0 0.0
05/05:00am 18.2 15.2 11.8 66 3.5 E 19 24 10 13 1023.1 1023.0 0.0
05/04:30am 18.7 15.6 11.6 63 3.9 E 19 26 10 14 1022.7 1022.6 0.0
05/04:00am 19.0 16.3 11.7 62 4.0 E 17 26 9 14 1022.7 1022.6 0.0
05/03:30am 19.4 16.7 11.6 60 4.3 ESE 17 30 9 16 1022.5 1022.4 0.0
05/03:00am 20.1 16.7 11.4 57 4.8 ESE 20 30 11 16 1022.2 1022.1 0.0
05/02:30am 20.6 16.5 11.3 55 5.1 E 24 30 13 16 1021.9 1021.8 0.0
05/02:00am 21.1 17.4 11.5 54 5.3 E 22 32 12 17 1021.8 1021.7 0.0
05/01:30am 21.8 18.0 11.3 51 5.8 E 22 37 12 20 1021.7 1021.6 0.0
05/01:00am 22.6 17.6 10.8 47 6.5 ESE 28 37 15 20 1021.7 1021.6 0.0
05/12:30am 23.4 18.2 10.3 43 7.2 E 28 46 15 25 1021.7 1021.6 0.0
05/12:28am 23.5 18.3 10.2 43 7.3 E 28 46 15 25 1021.7 1021.6 0.0
05/12:00am 24.1 19.5 9.6 39 7.9 ESE 24 37 13 20 1021.5 1021.4 0.0
 
Date/Time
WST
Tmp

°C
App
Tmp
°C
Dew
Point
°C
Rel
Hum
%
Delta-T

°C
Wind Press
QNH
hPa
Press
MSL
hPa
Rain
since
9 am
mm
Dir
 
Spd
km/h
Gust
km/h
Spd
kts
Gust
kts
04/11:30pm 24.7 19.3 9.4 38 8.3 E 28 39 15 21 1021.5 1021.4 0.0
04/11:00pm 25.0 21.1 9.4 37 8.5 ESE 20 26 11 14 1021.5 1021.4 0.0
04/10:30pm 25.3 21.1 8.3 34 9.1 E 20 28 11 15 1021.4 1021.3 0.0
04/10:00pm 26.1 21.3 7.4 30 9.9 ESE 22 33 12 18 1021.2 1021.1 0.0
04/09:30pm 25.9 22.2 7.9 32 9.6 ESE 17 20 9 11 1021.1 1021.0 0.0
04/09:00pm 26.0 22.4 8.3 32 9.5 ESE 17 24 9 13 1020.9 1020.8 0.0
04/08:30pm 25.9 22.8 9.0 34 9.2 ESE 15 17 8 9 1020.6 1020.5 0.0
04/08:00pm 26.3 23.6 8.8 33 9.5 SE 13 17 7 9 1020.2 1020.1 0.0
04/07:30pm 27.2 24.6 9.4 32 9.8 ESE 13 15 7 8 1019.9 1019.8 0.0
04/07:00pm 28.6 25.9 9.0 29 10.8 ESE 13 17 7 9 1019.6 1019.5 0.0
04/06:30pm 30.1 26.1 8.2 25 12.0 ESE 19 26 10 14 1019.4 1019.3 0.0
04/06:00pm 31.1 27.6 8.8 25 12.4 E 17 24 9 13 1019.2 1019.1 0.0
04/05:30pm 31.6 27.1 8.6 24 12.8 ESE 22 32 12 17 1019.0 1018.9 0.0
04/05:00pm 31.5 27.6 9.3 25 12.5 ESE 20 28 11 15 1018.8 1018.7 0.0
04/04:30pm 31.3 27.5 8.9 25 12.5 E 19 32 10 17 1018.8 1018.7 0.0
04/04:00pm 32.3 29.0 9.5 24 12.9 E 17 28 9 15 1018.8 1018.7 0.0
04/03:30pm 32.4 28.4 9.1 23 13.1 E 20 30 11 16 1018.8 1018.7 0.0
04/03:00pm 32.5 28.8 9.6 24 13.0 E 19 28 10 15 1019.0 1018.9 0.0
04/02:30pm 31.8 27.9 9.5 25 12.6 E 20 30 11 16 1019.2 1019.1 0.0
04/02:00pm 31.6 28.1 10.8 27 12.0 E 20 35 11 19 1019.6 1019.5 0.0
04/01:30pm 31.6 28.0 10.7 27 12.0 E 20 33 11 18 1019.8 1019.7 0.0
04/01:00pm 31.0 27.8 11.3 29 11.4 E 19 26 10 14 1020.2 1020.1 0.0
04/12:30pm 30.2 28.0 12.0 32 10.6 E 15 24 8 13 1020.5 1020.4 0.0
04/12:00pm 28.7 26.8 12.9 37 9.3 E 15 28 8 15 1021.2 1021.1 0.0
04/11:30am 28.2 26.3 13.1 39 8.9 ESE 15 20 8 11 1021.6 1021.5 0.0
04/11:00am 27.5 25.8 13.6 42 8.2 ENE 15 26 8 14 1021.9 1021.8 0.0
04/10:30am 25.7 23.5 13.2 46 7.3 ENE 17 22 9 12 1022.3 1022.2 0.0
04/10:00am 24.6 22.8 13.2 49 6.6 E 15 24 8 13 1022.4 1022.3 0.0

Latest Capital City Observations: Canberra | Sydney | Melbourne | Brisbane | Adelaide | Perth | Hobart | Darwin

Other Formats:

Comma delimited format used in spreadsheet applications
http://www.bom.gov.au/fwo/IDW60901/IDW60901.94609.axf

JavaScript Object Notation format (JSON) in row-major order
http://www.bom.gov.au/fwo/IDW60901/IDW60901.94609.json